sensor_id;sensor_type;location;lat;lon;timestamp;P1;durP1;ratioP1;P2;durP2;ratioP2
9807;SDS011;4943;52.550;13.462;2023-06-22T00:00:34;715.95;;;662.35;;
9807;SDS011;4943;52.550;13.462;2023-06-22T00:03:03;699.53;;;646.17;;
9807;SDS011;4943;52.550;13.462;2023-06-22T00:05:32;696.13;;;643.00;;
9807;SDS011;4943;52.550;13.462;2023-06-22T00:08:02;696.78;;;643.58;;
9807;SDS011;4943;52.550;13.462;2023-06-22T00:10:31;697.42;;;643.75;;
9807;SDS011;4943;52.550;13.462;2023-06-22T00:13:00;695.58;;;642.20;;
9807;SDS011;4943;52.550;13.462;2023-06-22T00:15:28;697.70;;;644.28;;
9807;SDS011;4943;52.550;13.462;2023-06-22T00:17:56;687.60;;;634.67;;
9807;SDS011;4943;52.550;13.462;2023-06-22T00:20:25;716.65;;;663.17;;
9807;SDS011;4943;52.550;13.462;2023-06-22T00:22:58;688.42;;;635.53;;
9807;SDS011;4943;52.550;13.462;2023-06-22T00:25:26;689.25;;;636.17;;
9807;SDS011;4943;52.550;13.462;2023-06-22T00:27:55;692.90;;;639.88;;
9807;SDS011;4943;52.550;13.462;2023-06-22T00:30:23;683.88;;;631.17;;
9807;SDS011;4943;52.550;13.462;2023-06-22T00:32:51;684.92;;;632.10;;
9807;SDS011;4943;52.550;13.462;2023-06-22T00:35:20;683.30;;;630.20;;
9807;SDS011;4943;52.550;13.462;2023-06-22T00:37:49;681.90;;;628.75;;
9807;SDS011;4943;52.550;13.462;2023-06-22T00:40:19;681.42;;;628.67;;
9807;SDS011;4943;52.550;13.462;2023-06-22T00:42:48;690.92;;;637.47;;
9807;SDS011;4943;52.550;13.462;2023-06-22T00:45:16;679.50;;;626.80;;
9807;SDS011;4943;52.550;13.462;2023-06-22T00:47:44;674.75;;;621.85;;
9807;SDS011;4943;52.550;13.462;2023-06-22T00:50:14;666.25;;;613.65;;
9807;SDS011;4943;52.550;13.462;2023-06-22T00:52:48;666.92;;;614.50;;
9807;SDS011;4943;52.550;13.462;2023-06-22T00:55:19;692.92;;;639.92;;
9807;SDS011;4943;52.550;13.462;2023-06-22T00:57:49;675.50;;;622.83;;
9807;SDS011;4943;52.550;13.462;2023-06-22T01:00:23;673.13;;;620.60;;
9807;SDS011;4943;52.550;13.462;2023-06-22T01:02:52;676.25;;;623.40;;
9807;SDS011;4943;52.550;13.462;2023-06-22T01:05:21;675.30;;;622.78;;
9807;SDS011;4943;52.550;13.462;2023-06-22T01:07:53;670.88;;;618.47;;
9807;SDS011;4943;52.550;13.462;2023-06-22T01:10:39;650.72;;;598.67;;
9807;SDS011;4943;52.550;13.462;2023-06-22T01:13:12;652.55;;;600.58;;
9807;SDS011;4943;52.550;13.462;2023-06-22T01:15:49;660.78;;;608.50;;
9807;SDS011;4943;52.550;13.462;2023-06-22T01:18:22;650.78;;;598.63;;
9807;SDS011;4943;52.550;13.462;2023-06-22T01:20:53;646.75;;;594.85;;
9807;SDS011;4943;52.550;13.462;2023-06-22T01:23:26;645.45;;;593.85;;
9807;SDS011;4943;52.550;13.462;2023-06-22T01:26:04;636.95;;;585.53;;
9807;SDS011;4943;52.550;13.462;2023-06-22T01:28:46;637.33;;;585.50;;
9807;SDS011;4943;52.550;13.462;2023-06-22T01:31:16;627.58;;;576.28;;
9807;SDS011;4943;52.550;13.462;2023-06-22T01:33:48;644.75;;;594.13;;
9807;SDS011;4943;52.550;13.462;2023-06-22T01:36:18;636.75;;;585.08;;
9807;SDS011;4943;52.550;13.462;2023-06-22T01:38:48;630.33;;;579.10;;
9807;SDS011;4943;52.550;13.462;2023-06-22T01:41:17;656.53;;;605.60;;
9807;SDS011;4943;52.550;13.462;2023-06-22T01:43:48;638.05;;;586.63;;
9807;SDS011;4943;52.550;13.462;2023-06-22T01:46:17;628.88;;;577.53;;
9807;SDS011;4943;52.550;13.462;2023-06-22T01:48:46;639.80;;;588.45;;
9807;SDS011;4943;52.550;13.462;2023-06-22T01:51:15;632.28;;;581.28;;
9807;SDS011;4943;52.550;13.462;2023-06-22T01:53:43;641.60;;;590.70;;
9807;SDS011;4943;52.550;13.462;2023-06-22T01:56:12;626.92;;;575.72;;
9807;SDS011;4943;52.550;13.462;2023-06-22T01:58:41;636.53;;;585.95;;
9807;SDS011;4943;52.550;13.462;2023-06-22T02:01:16;625.92;;;575.10;;
9807;SDS011;4943;52.550;13.462;2023-06-22T02:03:50;628.33;;;577.28;;
9807;SDS011;4943;52.550;13.462;2023-06-22T02:06:25;617.88;;;566.90;;
9807;SDS011;4943;52.550;13.462;2023-06-22T02:09:02;618.20;;;567.47;;
9807;SDS011;4943;52.550;13.462;2023-06-22T02:11:33;614.90;;;564.17;;
9807;SDS011;4943;52.550;13.462;2023-06-22T02:14:04;618.05;;;567.17;;
9807;SDS011;4943;52.550;13.462;2023-06-22T02:16:35;633.45;;;583.40;;
9807;SDS011;4943;52.550;13.462;2023-06-22T02:19:04;631.83;;;581.10;;
9807;SDS011;4943;52.550;13.462;2023-06-22T02:21:34;614.08;;;563.33;;
9807;SDS011;4943;52.550;13.462;2023-06-22T02:24:02;612.28;;;561.58;;
9807;SDS011;4943;52.550;13.462;2023-06-22T02:26:30;620.33;;;569.28;;
9807;SDS011;4943;52.550;13.462;2023-06-22T02:29:00;623.03;;;572.08;;
9807;SDS011;4943;52.550;13.462;2023-06-22T02:31:28;599.95;;;549.72;;
9807;SDS011;4943;52.550;13.462;2023-06-22T02:33:59;605.55;;;554.95;;
9807;SDS011;4943;52.550;13.462;2023-06-22T02:36:27;629.15;;;582.50;;
9807;SDS011;4943;52.550;13.462;2023-06-22T02:38:57;608.00;;;557.22;;
9807;SDS011;4943;52.550;13.462;2023-06-22T02:41:27;612.30;;;561.45;;
9807;SDS011;4943;52.550;13.462;2023-06-22T02:43:55;607.97;;;557.17;;
9807;SDS011;4943;52.550;13.462;2023-06-22T02:46:23;609.03;;;558.40;;
9807;SDS011;4943;52.550;13.462;2023-06-22T02:48:51;620.65;;;570.72;;
9807;SDS011;4943;52.550;13.462;2023-06-22T02:51:21;609.08;;;558.30;;
9807;SDS011;4943;52.550;13.462;2023-06-22T02:53:49;615.03;;;564.13;;
9807;SDS011;4943;52.550;13.462;2023-06-22T02:56:24;611.67;;;561.15;;
9807;SDS011;4943;52.550;13.462;2023-06-22T02:58:52;621.63;;;571.92;;
9807;SDS011;4943;52.550;13.462;2023-06-22T03:01:20;621.35;;;570.28;;
9807;SDS011;4943;52.550;13.462;2023-06-22T03:03:52;639.65;;;591.15;;
9807;SDS011;4943;52.550;13.462;2023-06-22T03:06:21;641.83;;;596.25;;
9807;SDS011;4943;52.550;13.462;2023-06-22T03:08:57;593.47;;;555.05;;
9807;SDS011;4943;52.550;13.462;2023-06-22T03:11:26;640.40;;;589.40;;
9807;SDS011;4943;52.550;13.462;2023-06-22T03:13:54;633.50;;;582.25;;
9807;SDS011;4943;52.550;13.462;2023-06-22T03:16:22;629.08;;;577.88;;
9807;SDS011;4943;52.550;13.462;2023-06-22T03:18:50;647.65;;;602.50;;
9807;SDS011;4943;52.550;13.462;2023-06-22T03:21:19;636.00;;;585.45;;
9807;SDS011;4943;52.550;13.462;2023-06-22T03:23:50;649.75;;;598.25;;
9807;SDS011;4943;52.550;13.462;2023-06-22T03:26:18;647.30;;;595.72;;
9807;SDS011;4943;52.550;13.462;2023-06-22T03:28:46;659.05;;;607.75;;
9807;SDS011;4943;52.550;13.462;2023-06-22T03:31:14;663.90;;;612.00;;
9807;SDS011;4943;52.550;13.462;2023-06-22T03:33:43;680.05;;;627.67;;
9807;SDS011;4943;52.550;13.462;2023-06-22T03:36:11;682.33;;;630.33;;
9807;SDS011;4943;52.550;13.462;2023-06-22T03:38:40;685.90;;;633.38;;
9807;SDS011;4943;52.550;13.462;2023-06-22T03:41:08;677.30;;;625.30;;
9807;SDS011;4943;52.550;13.462;2023-06-22T03:43:36;681.05;;;628.70;;
9807;SDS011;4943;52.550;13.462;2023-06-22T03:46:04;679.90;;;627.30;;
9807;SDS011;4943;52.550;13.462;2023-06-22T03:48:32;686.72;;;634.33;;
9807;SDS011;4943;52.550;13.462;2023-06-22T03:51:00;692.17;;;639.58;;
9807;SDS011;4943;52.550;13.462;2023-06-22T03:53:29;706.65;;;653.67;;
9807;SDS011;4943;52.550;13.462;2023-06-22T03:55:59;711.40;;;658.20;;
9807;SDS011;4943;52.550;13.462;2023-06-22T03:58:27;721.50;;;668.08;;
9807;SDS011;4943;52.550;13.462;2023-06-22T04:00:59;724.75;;;671.30;;
9807;SDS011;4943;52.550;13.462;2023-06-22T04:03:27;733.47;;;679.50;;
9807;SDS011;4943;52.550;13.462;2023-06-22T04:05:56;736.72;;;683.08;;
9807;SDS011;4943;52.550;13.462;2023-06-22T04:08:24;737.22;;;683.40;;
9807;SDS011;4943;52.550;13.462;2023-06-22T04:10:52;747.50;;;693.40;;
9807;SDS011;4943;52.550;13.462;2023-06-22T04:13:21;755.60;;;701.17;;
9807;SDS011;4943;52.550;13.462;2023-06-22T04:15:50;747.25;;;693.05;;
9807;SDS011;4943;52.550;13.462;2023-06-22T04:18:18;752.25;;;697.72;;
9807;SDS011;4943;52.550;13.462;2023-06-22T04:20:46;746.63;;;692.47;;
9807;SDS011;4943;52.550;13.462;2023-06-22T04:23:14;749.60;;;695.00;;
9807;SDS011;4943;52.550;13.462;2023-06-22T04:25:42;739.30;;;685.58;;
9807;SDS011;4943;52.550;13.462;2023-06-22T04:28:10;738.50;;;684.35;;
9807;SDS011;4943;52.550;13.462;2023-06-22T04:30:40;728.33;;;674.55;;
9807;SDS011;4943;52.550;13.462;2023-06-22T04:33:13;725.42;;;671.72;;
9807;SDS011;4943;52.550;13.462;2023-06-22T04:35:44;713.42;;;659.92;;
9807;SDS011;4943;52.550;13.462;2023-06-22T04:38:13;711.08;;;657.55;;
9807;SDS011;4943;52.550;13.462;2023-06-22T04:40:41;715.40;;;662.15;;
9807;SDS011;4943;52.550;13.462;2023-06-22T04:43:09;709.13;;;655.90;;
9807;SDS011;4943;52.550;13.462;2023-06-22T04:45:37;701.92;;;649.25;;
9807;SDS011;4943;52.550;13.462;2023-06-22T04:48:07;707.63;;;654.15;;
9807;SDS011;4943;52.550;13.462;2023-06-22T04:50:35;698.78;;;646.05;;
9807;SDS011;4943;52.550;13.462;2023-06-22T04:53:05;698.72;;;645.92;;
9807;SDS011;4943;52.550;13.462;2023-06-22T04:55:33;691.22;;;638.85;;
9807;SDS011;4943;52.550;13.462;2023-06-22T04:58:03;693.67;;;641.17;;
9807;SDS011;4943;52.550;13.462;2023-06-22T05:00:31;699.22;;;646.58;;
9807;SDS011;4943;52.550;13.462;2023-06-22T05:03:02;695.25;;;642.95;;
9807;SDS011;4943;52.550;13.462;2023-06-22T05:05:46;706.60;;;653.88;;
9807;SDS011;4943;52.550;13.462;2023-06-22T05:08:14;709.05;;;656.42;;
9807;SDS011;4943;52.550;13.462;2023-06-22T05:10:42;709.90;;;657.20;;
9807;SDS011;4943;52.550;13.462;2023-06-22T05:13:29;707.35;;;654.55;;
9807;SDS011;4943;52.550;13.462;2023-06-22T05:15:57;712.00;;;659.17;;
9807;SDS011;4943;52.550;13.462;2023-06-22T05:18:29;710.08;;;657.40;;
9807;SDS011;4943;52.550;13.462;2023-06-22T05:21:00;740.65;;;688.58;;
9807;SDS011;4943;52.550;13.462;2023-06-22T05:23:28;745.30;;;694.35;;
9807;SDS011;4943;52.550;13.462;2023-06-22T05:25:56;733.33;;;679.67;;
9807;SDS011;4943;52.550;13.462;2023-06-22T05:28:24;751.78;;;699.90;;
9807;SDS011;4943;52.550;13.462;2023-06-22T05:30:53;742.47;;;688.50;;
9807;SDS011;4943;52.550;13.462;2023-06-22T05:33:21;741.67;;;688.08;;
9807;SDS011;4943;52.550;13.462;2023-06-22T05:35:49;743.97;;;690.22;;
9807;SDS011;4943;52.550;13.462;2023-06-22T05:38:19;756.78;;;702.95;;
9807;SDS011;4943;52.550;13.462;2023-06-22T05:40:47;749.42;;;695.00;;
9807;SDS011;4943;52.550;13.462;2023-06-22T05:43:15;769.63;;;715.05;;
9807;SDS011;4943;52.550;13.462;2023-06-22T05:45:43;767.72;;;713.28;;
9807;SDS011;4943;52.550;13.462;2023-06-22T05:48:11;763.95;;;709.83;;
9807;SDS011;4943;52.550;13.462;2023-06-22T05:50:39;779.85;;;725.45;;
9807;SDS011;4943;52.550;13.462;2023-06-22T05:53:07;769.63;;;715.33;;
9807;SDS011;4943;52.550;13.462;2023-06-22T05:55:37;770.13;;;716.03;;
9807;SDS011;4943;52.550;13.462;2023-06-22T05:58:05;771.88;;;717.38;;
9807;SDS011;4943;52.550;13.462;2023-06-22T06:00:33;748.35;;;699.08;;
9807;SDS011;4943;52.550;13.462;2023-06-22T06:03:01;770.42;;;718.78;;
9807;SDS011;4943;52.550;13.462;2023-06-22T06:05:30;771.45;;;718.90;;
9807;SDS011;4943;52.550;13.462;2023-06-22T06:07:59;729.00;;;682.97;;
9807;SDS011;4943;52.550;13.462;2023-06-22T06:10:27;771.47;;;717.22;;
9807;SDS011;4943;52.550;13.462;2023-06-22T06:12:58;769.15;;;714.35;;
9807;SDS011;4943;52.550;13.462;2023-06-22T06:15:28;773.13;;;718.95;;
9807;SDS011;4943;52.550;13.462;2023-06-22T06:17:57;770.78;;;715.33;;
9807;SDS011;4943;52.550;13.462;2023-06-22T06:20:25;764.80;;;710.75;;
9807;SDS011;4943;52.550;13.462;2023-06-22T06:22:55;767.75;;;712.15;;
9807;SDS011;4943;52.550;13.462;2023-06-22T06:25:23;762.63;;;707.90;;
9807;SDS011;4943;52.550;13.462;2023-06-22T06:27:52;774.58;;;720.00;;
9807;SDS011;4943;52.550;13.462;2023-06-22T06:30:22;767.28;;;712.92;;
9807;SDS011;4943;52.550;13.462;2023-06-22T06:32:50;789.17;;;736.13;;
9807;SDS011;4943;52.550;13.462;2023-06-22T06:35:18;777.50;;;723.10;;
9807;SDS011;4943;52.550;13.462;2023-06-22T06:37:48;760.33;;;706.22;;
9807;SDS011;4943;52.550;13.462;2023-06-22T06:40:17;767.03;;;712.70;;
9807;SDS011;4943;52.550;13.462;2023-06-22T06:42:46;776.30;;;721.92;;
9807;SDS011;4943;52.550;13.462;2023-06-22T06:45:16;777.33;;;726.00;;
9807;SDS011;4943;52.550;13.462;2023-06-22T06:47:46;771.20;;;717.05;;
9807;SDS011;4943;52.550;13.462;2023-06-22T06:50:15;771.10;;;716.83;;
9807;SDS011;4943;52.550;13.462;2023-06-22T06:52:43;766.22;;;711.53;;
9807;SDS011;4943;52.550;13.462;2023-06-22T06:55:11;774.42;;;719.78;;
9807;SDS011;4943;52.550;13.462;2023-06-22T06:57:40;783.60;;;729.50;;
9807;SDS011;4943;52.550;13.462;2023-06-22T07:00:10;762.80;;;709.13;;
9807;SDS011;4943;52.550;13.462;2023-06-22T07:02:41;768.83;;;714.55;;
9807;SDS011;4943;52.550;13.462;2023-06-22T07:05:11;762.50;;;708.78;;
9807;SDS011;4943;52.550;13.462;2023-06-22T07:07:40;760.20;;;706.47;;
9807;SDS011;4943;52.550;13.462;2023-06-22T07:10:09;779.90;;;725.47;;
9807;SDS011;4943;52.550;13.462;2023-06-22T07:12:38;765.97;;;712.17;;
9807;SDS011;4943;52.550;13.462;2023-06-22T07:15:06;792.33;;;737.55;;
9807;SDS011;4943;52.550;13.462;2023-06-22T07:17:36;776.10;;;721.80;;
9807;SDS011;4943;52.550;13.462;2023-06-22T07:20:06;777.72;;;723.45;;
9807;SDS011;4943;52.550;13.462;2023-06-22T07:22:38;802.20;;;748.10;;
9807;SDS011;4943;52.550;13.462;2023-06-22T07:25:07;818.60;;;763.83;;
9807;SDS011;4943;52.550;13.462;2023-06-22T07:27:36;810.25;;;755.28;;
9807;SDS011;4943;52.550;13.462;2023-06-22T07:30:06;797.90;;;742.70;;
9807;SDS011;4943;52.550;13.462;2023-06-22T07:32:35;808.47;;;752.88;;
9807;SDS011;4943;52.550;13.462;2023-06-22T07:35:04;819.15;;;763.67;;
9807;SDS011;4943;52.550;13.462;2023-06-22T07:37:33;813.88;;;758.60;;
9807;SDS011;4943;52.550;13.462;2023-06-22T07:40:03;841.22;;;785.42;;
9807;SDS011;4943;52.550;13.462;2023-06-22T07:42:32;815.58;;;760.55;;
9807;SDS011;4943;52.550;13.462;2023-06-22T07:45:01;823.33;;;767.60;;
9807;SDS011;4943;52.550;13.462;2023-06-22T07:47:30;834.00;;;778.05;;
9807;SDS011;4943;52.550;13.462;2023-06-22T07:50:02;826.95;;;771.30;;
9807;SDS011;4943;52.550;13.462;2023-06-22T07:52:31;831.55;;;775.78;;
9807;SDS011;4943;52.550;13.462;2023-06-22T07:54:59;853.03;;;796.22;;
9807;SDS011;4943;52.550;13.462;2023-06-22T07:57:29;839.90;;;783.75;;
9807;SDS011;4943;52.550;13.462;2023-06-22T08:00:00;871.92;;;815.45;;
9807;SDS011;4943;52.550;13.462;2023-06-22T08:02:34;867.47;;;813.42;;
9807;SDS011;4943;52.550;13.462;2023-06-22T08:05:02;889.28;;;832.05;;
9807;SDS011;4943;52.550;13.462;2023-06-22T08:07:46;882.22;;;825.35;;
9807;SDS011;4943;52.550;13.462;2023-06-22T08:10:14;883.95;;;826.38;;
9807;SDS011;4943;52.550;13.462;2023-06-22T08:12:44;888.63;;;831.15;;
9807;SDS011;4943;52.550;13.462;2023-06-22T08:15:12;883.47;;;825.28;;
9807;SDS011;4943;52.550;13.462;2023-06-22T08:17:40;893.67;;;836.15;;
9807;SDS011;4943;52.550;13.462;2023-06-22T08:20:09;895.47;;;838.08;;
9807;SDS011;4943;52.550;13.462;2023-06-22T08:22:38;900.58;;;841.58;;
9807;SDS011;4943;52.550;13.462;2023-06-22T08:25:07;907.33;;;849.85;;
9807;SDS011;4943;52.550;13.462;2023-06-22T08:27:36;925.58;;;866.33;;
9807;SDS011;4943;52.550;13.462;2023-06-22T08:30:06;912.75;;;853.85;;
9807;SDS011;4943;52.550;13.462;2023-06-22T08:32:37;900.75;;;842.75;;
9807;SDS011;4943;52.550;13.462;2023-06-22T08:35:05;894.22;;;836.38;;
9807;SDS011;4943;52.550;13.462;2023-06-22T08:37:34;890.42;;;832.47;;
9807;SDS011;4943;52.550;13.462;2023-06-22T08:40:03;896.38;;;838.65;;
9807;SDS011;4943;52.550;13.462;2023-06-22T08:42:34;908.97;;;849.95;;
9807;SDS011;4943;52.550;13.462;2023-06-22T08:45:03;899.78;;;841.40;;
9807;SDS011;4943;52.550;13.462;2023-06-22T08:47:32;910.13;;;851.50;;
9807;SDS011;4943;52.550;13.462;2023-06-22T08:50:01;924.38;;;864.85;;
9807;SDS011;4943;52.550;13.462;2023-06-22T08:52:29;916.53;;;858.15;;
9807;SDS011;4943;52.550;13.462;2023-06-22T08:54:58;914.55;;;855.63;;
9807;SDS011;4943;52.550;13.462;2023-06-22T08:57:26;928.58;;;869.10;;
9807;SDS011;4943;52.550;13.462;2023-06-22T08:59:54;922.63;;;863.83;;
9807;SDS011;4943;52.550;13.462;2023-06-22T09:02:25;934.35;;;874.88;;
9807;SDS011;4943;52.550;13.462;2023-06-22T09:05:02;938.92;;;879.15;;
9807;SDS011;4943;52.550;13.462;2023-06-22T09:07:31;933.88;;;874.65;;
9807;SDS011;4943;52.550;13.462;2023-06-22T09:10:00;955.50;;;895.13;;
9807;SDS011;4943;52.550;13.462;2023-06-22T09:12:30;953.70;;;892.85;;
9807;SDS011;4943;52.550;13.462;2023-06-22T09:14:59;945.33;;;885.60;;
9807;SDS011;4943;52.550;13.462;2023-06-22T09:17:29;965.88;;;904.97;;
9807;SDS011;4943;52.550;13.462;2023-06-22T09:19:57;968.28;;;907.17;;
9807;SDS011;4943;52.550;13.462;2023-06-22T09:22:27;947.58;;;887.33;;
9807;SDS011;4943;52.550;13.462;2023-06-22T09:24:55;952.13;;;892.40;;
9807;SDS011;4943;52.550;13.462;2023-06-22T09:27:23;932.10;;;873.13;;
9807;SDS011;4943;52.550;13.462;2023-06-22T09:29:51;956.50;;;896.05;;
9807;SDS011;4943;52.550;13.462;2023-06-22T09:32:20;961.08;;;900.05;;
9807;SDS011;4943;52.550;13.462;2023-06-22T09:34:48;935.60;;;876.78;;
9807;SDS011;4943;52.550;13.462;2023-06-22T09:37:16;960.58;;;900.25;;
9807;SDS011;4943;52.550;13.462;2023-06-22T09:39:45;966.60;;;905.42;;
9807;SDS011;4943;52.550;13.462;2023-06-22T09:42:13;971.40;;;909.83;;
9807;SDS011;4943;52.550;13.462;2023-06-22T09:44:41;969.95;;;908.50;;
9807;SDS011;4943;52.550;13.462;2023-06-22T09:47:09;964.42;;;903.42;;
9807;SDS011;4943;52.550;13.462;2023-06-22T09:49:37;951.00;;;890.55;;
9807;SDS011;4943;52.550;13.462;2023-06-22T09:52:13;963.63;;;902.40;;
9807;SDS011;4943;52.550;13.462;2023-06-22T09:54:41;956.35;;;895.75;;
9807;SDS011;4943;52.550;13.462;2023-06-22T09:57:11;966.85;;;905.70;;
9807;SDS011;4943;52.550;13.462;2023-06-22T09:59:39;940.00;;;880.30;;
9807;SDS011;4943;52.550;13.462;2023-06-22T10:02:07;945.05;;;885.03;;
9807;SDS011;4943;52.550;13.462;2023-06-22T10:04:36;923.33;;;864.33;;
9807;SDS011;4943;52.550;13.462;2023-06-22T10:07:06;933.05;;;873.70;;
9807;SDS011;4943;52.550;13.462;2023-06-22T10:09:34;931.53;;;872.10;;
9807;SDS011;4943;52.550;13.462;2023-06-22T10:12:02;931.00;;;871.88;;
9807;SDS011;4943;52.550;13.462;2023-06-22T10:14:32;940.25;;;879.75;;
9807;SDS011;4943;52.550;13.462;2023-06-22T10:17:00;922.45;;;863.75;;
9807;SDS011;4943;52.550;13.462;2023-06-22T10:19:28;922.67;;;863.85;;
9807;SDS011;4943;52.550;13.462;2023-06-22T10:21:56;929.53;;;870.15;;
9807;SDS011;4943;52.550;13.462;2023-06-22T10:24:24;935.55;;;875.67;;
9807;SDS011;4943;52.550;13.462;2023-06-22T10:26:52;919.63;;;860.72;;
9807;SDS011;4943;52.550;13.462;2023-06-22T10:29:20;943.33;;;883.53;;
9807;SDS011;4943;52.550;13.462;2023-06-22T10:31:49;904.10;;;846.17;;
9807;SDS011;4943;52.550;13.462;2023-06-22T10:34:17;917.33;;;858.83;;
9807;SDS011;4943;52.550;13.462;2023-06-22T10:36:45;916.20;;;857.42;;
9807;SDS011;4943;52.550;13.462;2023-06-22T10:39:15;916.53;;;858.17;;
9807;SDS011;4943;52.550;13.462;2023-06-22T10:41:43;913.10;;;854.65;;
9807;SDS011;4943;52.550;13.462;2023-06-22T10:44:11;909.85;;;851.75;;
9807;SDS011;4943;52.550;13.462;2023-06-22T10:46:39;916.72;;;858.10;;
9807;SDS011;4943;52.550;13.462;2023-06-22T10:49:09;939.13;;;879.63;;
9807;SDS011;4943;52.550;13.462;2023-06-22T10:51:37;919.78;;;860.85;;
9807;SDS011;4943;52.550;13.462;2023-06-22T10:54:05;922.13;;;863.47;;
9807;SDS011;4943;52.550;13.462;2023-06-22T10:56:33;916.78;;;858.50;;
9807;SDS011;4943;52.550;13.462;2023-06-22T10:59:01;917.97;;;859.65;;
9807;SDS011;4943;52.550;13.462;2023-06-22T11:01:29;917.28;;;859.05;;
9807;SDS011;4943;52.550;13.462;2023-06-22T11:04:02;902.83;;;845.17;;
9807;SDS011;4943;52.550;13.462;2023-06-22T11:06:32;907.20;;;849.15;;
9807;SDS011;4943;52.550;13.462;2023-06-22T11:09:00;932.90;;;873.33;;
9807;SDS011;4943;52.550;13.462;2023-06-22T11:11:49;910.17;;;852.00;;
9807;SDS011;4943;52.550;13.462;2023-06-22T11:14:19;906.85;;;848.85;;
9807;SDS011;4943;52.550;13.462;2023-06-22T11:16:48;904.15;;;846.40;;
9807;SDS011;4943;52.550;13.462;2023-06-22T11:19:17;903.75;;;845.92;;
9807;SDS011;4943;52.550;13.462;2023-06-22T11:21:46;911.00;;;852.80;;
9807;SDS011;4943;52.550;13.462;2023-06-22T11:24:14;928.90;;;869.67;;
9807;SDS011;4943;52.550;13.462;2023-06-22T11:26:43;934.88;;;875.67;;
9807;SDS011;4943;52.550;13.462;2023-06-22T11:29:11;946.30;;;886.55;;
9807;SDS011;4943;52.550;13.462;2023-06-22T11:31:59;945.78;;;885.38;;
9807;SDS011;4943;52.550;13.462;2023-06-22T11:34:27;953.35;;;893.33;;
9807;SDS011;4943;52.550;13.462;2023-06-22T11:36:57;952.67;;;892.72;;
9807;SDS011;4943;52.550;13.462;2023-06-22T11:39:25;958.95;;;898.20;;
9807;SDS011;4943;52.550;13.462;2023-06-22T11:42:06;957.03;;;897.03;;
9807;SDS011;4943;52.550;13.462;2023-06-22T11:44:35;956.47;;;896.33;;
9807;SDS011;4943;52.550;13.462;2023-06-22T11:47:03;939.75;;;880.42;;
9807;SDS011;4943;52.550;13.462;2023-06-22T11:49:32;937.30;;;877.97;;
9807;SDS011;4943;52.550;13.462;2023-06-22T11:52:01;930.95;;;872.28;;
9807;SDS011;4943;52.550;13.462;2023-06-22T11:54:29;931.85;;;873.22;;
9807;SDS011;4943;52.550;13.462;2023-06-22T11:56:57;932.75;;;874.05;;
9807;SDS011;4943;52.550;13.462;2023-06-22T11:59:26;931.10;;;872.50;;
9807;SDS011;4943;52.550;13.462;2023-06-22T12:01:54;927.90;;;869.58;;
9807;SDS011;4943;52.550;13.462;2023-06-22T12:04:22;920.80;;;862.75;;
9807;SDS011;4943;52.550;13.462;2023-06-22T12:06:50;927.05;;;868.47;;
9807;SDS011;4943;52.550;13.462;2023-06-22T12:09:19;915.22;;;857.38;;
9807;SDS011;4943;52.550;13.462;2023-06-22T12:11:47;916.72;;;858.50;;
9807;SDS011;4943;52.550;13.462;2023-06-22T12:14:15;926.47;;;867.92;;
9807;SDS011;4943;52.550;13.462;2023-06-22T12:16:43;924.03;;;865.72;;
9807;SDS011;4943;52.550;13.462;2023-06-22T12:19:11;922.90;;;864.45;;
9807;SDS011;4943;52.550;13.462;2023-06-22T12:21:39;928.30;;;870.00;;
9807;SDS011;4943;52.550;13.462;2023-06-22T12:24:11;939.10;;;880.17;;
9807;SDS011;4943;52.550;13.462;2023-06-22T12:26:41;942.38;;;883.00;;
9807;SDS011;4943;52.550;13.462;2023-06-22T12:29:09;953.35;;;894.17;;
9807;SDS011;4943;52.550;13.462;2023-06-22T12:31:37;952.80;;;893.38;;
9807;SDS011;4943;52.550;13.462;2023-06-22T12:34:06;960.70;;;900.97;;
9807;SDS011;4943;52.550;13.462;2023-06-22T12:36:34;961.67;;;901.58;;
9807;SDS011;4943;52.550;13.462;2023-06-22T12:39:02;947.47;;;888.22;;
9807;SDS011;4943;52.550;13.462;2023-06-22T12:41:30;948.92;;;889.08;;
9807;SDS011;4943;52.550;13.462;2023-06-22T12:44:00;953.03;;;893.63;;
9807;SDS011;4943;52.550;13.462;2023-06-22T12:46:28;949.28;;;889.60;;
9807;SDS011;4943;52.550;13.462;2023-06-22T12:48:57;954.45;;;894.78;;
9807;SDS011;4943;52.550;13.462;2023-06-22T12:51:27;949.03;;;889.35;;
9807;SDS011;4943;52.550;13.462;2023-06-22T12:53:55;952.70;;;892.80;;
9807;SDS011;4943;52.550;13.462;2023-06-22T12:56:23;946.75;;;887.25;;
9807;SDS011;4943;52.550;13.462;2023-06-22T12:58:52;955.08;;;894.97;;
9807;SDS011;4943;52.550;13.462;2023-06-22T13:01:21;959.55;;;899.72;;
9807;SDS011;4943;52.550;13.462;2023-06-22T13:03:50;966.63;;;906.40;;
9807;SDS011;4943;52.550;13.462;2023-06-22T13:06:18;958.20;;;898.53;;
9807;SDS011;4943;52.550;13.462;2023-06-22T13:08:46;966.42;;;906.17;;
9807;SDS011;4943;52.550;13.462;2023-06-22T13:11:17;977.95;;;917.20;;
9807;SDS011;4943;52.550;13.462;2023-06-22T13:13:46;970.25;;;909.85;;
9807;SDS011;4943;52.550;13.462;2023-06-22T13:16:14;982.50;;;921.63;;
9807;SDS011;4943;52.550;13.462;2023-06-22T13:18:43;969.15;;;909.10;;
9807;SDS011;4943;52.550;13.462;2023-06-22T13:21:17;979.33;;;918.65;;
9807;SDS011;4943;52.550;13.462;2023-06-22T13:24:22;988.10;;;926.85;;
9807;SDS011;4943;52.550;13.462;2023-06-22T13:26:50;974.53;;;913.92;;
9807;SDS011;4943;52.550;13.462;2023-06-22T13:29:18;986.60;;;925.40;;
9807;SDS011;4943;52.550;13.462;2023-06-22T13:31:46;976.20;;;915.83;;
9807;SDS011;4943;52.550;13.462;2023-06-22T13:34:15;986.03;;;925.10;;
9807;SDS011;4943;52.550;13.462;2023-06-22T13:36:43;979.13;;;918.58;;
9807;SDS011;4943;52.550;13.462;2023-06-22T13:39:12;976.25;;;915.58;;
9807;SDS011;4943;52.550;13.462;2023-06-22T13:41:40;971.78;;;911.67;;
9807;SDS011;4943;52.550;13.462;2023-06-22T13:44:10;975.58;;;915.42;;
9807;SDS011;4943;52.550;13.462;2023-06-22T13:46:38;964.00;;;903.72;;
9807;SDS011;4943;52.550;13.462;2023-06-22T13:49:06;963.70;;;904.05;;
9807;SDS011;4943;52.550;13.462;2023-06-22T13:51:35;970.75;;;910.72;;
9807;SDS011;4943;52.550;13.462;2023-06-22T13:54:04;972.55;;;912.45;;
9807;SDS011;4943;52.550;13.462;2023-06-22T13:56:50;963.35;;;903.83;;
9807;SDS011;4943;52.550;13.462;2023-06-22T13:59:18;958.28;;;898.95;;
9807;SDS011;4943;52.550;13.462;2023-06-22T14:01:46;953.17;;;894.22;;
9807;SDS011;4943;52.550;13.462;2023-06-22T14:04:14;952.97;;;893.70;;
9807;SDS011;4943;52.550;13.462;2023-06-22T14:06:44;951.22;;;892.40;;
9807;SDS011;4943;52.550;13.462;2023-06-22T14:09:12;940.97;;;882.45;;
9807;SDS011;4943;52.550;13.462;2023-06-22T14:11:40;956.90;;;897.53;;
9807;SDS011;4943;52.550;13.462;2023-06-22T14:14:08;946.22;;;887.40;;
9807;SDS011;4943;52.550;13.462;2023-06-22T14:16:36;966.22;;;906.13;;
9807;SDS011;4943;52.550;13.462;2023-06-22T14:19:04;950.88;;;891.67;;
9807;SDS011;4943;52.550;13.462;2023-06-22T14:21:32;944.33;;;885.38;;